Time;durP1;ratioP1;P1;durP2;ratioP2;P2;SDS_P1;SDS_P2;PMS_P1;PMS_P2;Temp;Humidity;BMP_temperature;BMP_pressure;BME280_temperature;BME280_humidity;BME280_pressure;Samples;Min_cycle;Max_cycle;Signal;HPM_P1;HPM_P2
2023/04/03 00:03:32;;;;;;;2.80;2.10;;;;;;;;;;8335174;28;20063;-89
2023/04/03 00:07:35;;;;;;;2.03;1.60;;;;;;;;;;8350568;28;20041;-82
2023/04/03 00:11:39;;;;;;;4.95;3.67;;;;;;;;;;8358374;28;20045;-87
2023/04/03 00:15:43;;;;;;;9.13;4.18;;;;;;;;;;8337559;28;20413;-85
2023/04/03 00:19:46;;;;;;;5.75;2.88;;;;;;;;;;8350485;28;20047;-87
2023/04/03 00:23:49;;;;;;;6.75;3.15;;;;;;;;;;8333474;28;20091;-91
2023/04/03 00:27:53;;;;;;;4.95;2.92;;;;;;;;;;8341218;28;20052;-87
2023/04/03 00:31:56;;;;;;;5.45;2.35;;;;;;;;;;8335740;28;20131;-88
2023/04/03 00:35:59;;;;;;;8.45;3.05;;;;;;;;;;8342545;28;20122;-85
2023/04/03 00:40:03;;;;;;;5.85;3.33;;;;;;;;;;8358868;28;20049;-85
2023/04/03 00:44:43;;;;;;;6.05;3.33;;;;;;;;;;8343999;28;20045;-85
2023/04/03 00:48:48;;;;;;;4.80;3.42;;;;;;;;;;8341986;28;20035;-85
2023/04/03 00:52:52;;;;;;;5.35;3.53;;;;;;;;;;8345093;28;20052;-83
2023/04/03 00:56:58;;;;;;;2.33;1.85;;;;;;;;;;8351442;28;20038;-85
2023/04/03 01:01:07;;;;;;;5.72;2.78;;;;;;;;;;8344964;28;20052;-87
2023/04/03 01:05:11;;;;;;;7.63;3.60;;;;;;;;;;8347338;28;20124;-83
2023/04/03 01:09:14;;;;;;;6.80;3.80;;;;;;;;;;8338442;28;20480;-81
2023/04/03 01:13:25;;;;;;;4.55;3.20;;;;;;;;;;8353960;28;20058;-82
2023/04/03 01:17:32;;;;;;;5.80;3.35;;;;;;;;;;8349802;28;20049;-84
2023/04/03 01:22:00;;;;;;;7.65;3.50;;;;;;;;;;8332585;28;20497;-88
2023/04/03 01:26:04;;;;;;;7.18;3.60;;;;;;;;;;8337014;28;20056;-84
2023/04/03 01:30:08;;;;;;;7.03;3.25;;;;;;;;;;8347294;28;20560;-88
2023/04/03 01:34:13;;;;;;;6.22;3.85;;;;;;;;;;8352433;28;20125;-90
2023/04/03 01:38:16;;;;;;;7.88;3.58;;;;;;;;;;8348793;28;20045;-86
2023/04/03 01:42:18;;;;;;;7.70;3.40;;;;;;;;;;8344108;28;20093;-86
2023/04/03 01:46:22;;;;;;;4.88;3.08;;;;;;;;;;8355309;28;20049;-85
2023/04/03 01:50:26;;;;;;;6.32;2.88;;;;;;;;;;8348245;28;20404;-91
2023/04/03 01:54:31;;;;;;;7.80;3.28;;;;;;;;;;8363043;28;20049;-86
2023/04/03 01:58:34;;;;;;;7.15;3.08;;;;;;;;;;8332290;28;20120;-87
2023/04/03 02:02:37;;;;;;;4.13;2.78;;;;;;;;;;8351018;28;20041;-86
2023/04/03 02:06:41;;;;;;;5.57;2.30;;;;;;;;;;8342373;28;20111;-84
2023/04/03 02:10:44;;;;;;;2.45;1.77;;;;;;;;;;8352483;28;20045;-82
2023/04/03 02:14:47;;;;;;;5.13;2.67;;;;;;;;;;8356211;28;20041;-83
2023/04/03 02:18:50;;;;;;;6.28;2.30;;;;;;;;;;8345643;28;20473;-83
2023/04/03 02:22:55;;;;;;;3.33;2.25;;;;;;;;;;8346706;28;20041;-82
2023/04/03 02:26:58;;;;;;;3.67;2.10;;;;;;;;;;8352778;28;20059;-82
2023/04/03 02:31:01;;;;;;;4.65;2.47;;;;;;;;;;8354817;28;20044;-81
2023/04/03 02:35:04;;;;;;;5.85;3.08;;;;;;;;;;8348963;28;20041;-85
2023/04/03 02:39:08;;;;;;;10.77;3.28;;;;;;;;;;8342857;28;20050;-82
2023/04/03 02:43:11;;;;;;;5.25;2.55;;;;;;;;;;8345872;28;20488;-82
2023/04/03 02:47:14;;;;;;;5.38;2.17;;;;;;;;;;8356189;28;20048;-83
2023/04/03 02:51:17;;;;;;;4.78;2.38;;;;;;;;;;8342670;28;20485;-81
2023/04/03 02:55:21;;;;;;;7.20;2.67;;;;;;;;;;8348043;28;20045;-81
2023/04/03 02:59:24;;;;;;;7.32;2.83;;;;;;;;;;8351423;28;21371;-87
2023/04/03 03:03:27;;;;;;;5.40;2.72;;;;;;;;;;8350098;28;20067;-82
2023/04/03 03:07:30;;;;;;;6.43;3.33;;;;;;;;;;8334805;28;20045;-82
2023/04/03 03:11:34;;;;;;;6.20;3.20;;;;;;;;;;8338061;28;20045;-84
2023/04/03 03:15:37;;;;;;;4.03;2.97;;;;;;;;;;8346701;28;20569;-82
2023/04/03 03:19:40;;;;;;;6.32;3.13;;;;;;;;;;8349990;28;20481;-81
2023/04/03 03:23:43;;;;;;;7.05;3.20;;;;;;;;;;8352482;28;20042;-84
2023/04/03 03:27:47;;;;;;;12.05;2.80;;;;;;;;;;8332629;28;20048;-83
2023/04/03 03:31:50;;;;;;;5.25;2.72;;;;;;;;;;8339517;28;20049;-84
2023/04/03 03:35:53;;;;;;;5.03;2.85;;;;;;;;;;8340910;28;20049;-86
2023/04/03 03:39:56;;;;;;;13.07;3.67;;;;;;;;;;8359149;28;20556;-83
2023/04/03 03:44:01;;;;;;;3.03;1.92;;;;;;;;;;8361260;28;20094;-82
2023/04/03 03:48:04;;;;;;;4.90;2.17;;;;;;;;;;8340478;28;20056;-85
2023/04/03 03:52:13;;;;;;;8.55;3.03;;;;;;;;;;8339196;28;20045;-82
2023/04/03 03:56:16;;;;;;;8.30;2.80;;;;;;;;;;8331824;28;20124;-83
2023/04/03 04:00:20;;;;;;;8.10;2.92;;;;;;;;;;8345183;28;20045;-85
2023/04/03 04:04:23;;;;;;;7.63;3.35;;;;;;;;;;8346828;28;20524;-84
2023/04/03 04:08:26;;;;;;;4.28;2.60;;;;;;;;;;8355751;28;20045;-85
2023/04/03 04:12:29;;;;;;;7.78;3.33;;;;;;;;;;8363444;28;20409;-83
2023/04/03 04:16:33;;;;;;;9.05;3.33;;;;;;;;;;8346294;28;20496;-83
2023/04/03 04:20:36;;;;;;;4.85;2.90;;;;;;;;;;8333495;28;20097;-81
2023/04/03 04:24:39;;;;;;;11.15;3.53;;;;;;;;;;8362901;28;20468;-82
2023/04/03 04:28:42;;;;;;;4.13;2.47;;;;;;;;;;8362490;28;20045;-83
2023/04/03 04:32:46;;;;;;;5.65;2.70;;;;;;;;;;8362473;28;20045;-81
2023/04/03 04:36:49;;;;;;;4.25;2.45;;;;;;;;;;8362543;28;20056;-80
2023/04/03 04:40:52;;;;;;;8.82;3.63;;;;;;;;;;8362417;28;20102;-85
2023/04/03 04:44:55;;;;;;;9.35;3.17;;;;;;;;;;8362217;28;20097;-80
2023/04/03 04:49:02;;;;;;;5.25;3.28;;;;;;;;;;8350973;28;20046;-82
2023/04/03 04:53:05;;;;;;;7.10;3.08;;;;;;;;;;8317909;28;20056;-86
2023/04/03 04:57:08;;;;;;;4.85;2.92;;;;;;;;;;8317643;28;20103;-79
2023/04/03 05:01:12;;;;;;;8.27;3.00;;;;;;;;;;8322527;28;20052;-79
2023/04/03 05:05:17;;;;;;;5.88;3.00;;;;;;;;;;8322852;28;20047;-84
2023/04/03 05:09:20;;;;;;;4.50;2.35;;;;;;;;;;8334118;28;20103;-80
2023/04/03 05:13:23;;;;;;;6.45;3.10;;;;;;;;;;8341049;28;20112;-85
2023/04/03 05:17:26;;;;;;;7.78;2.33;;;;;;;;;;8341601;28;20060;-80
2023/04/03 05:21:32;;;;;;;6.38;3.35;;;;;;;;;;8347919;28;20045;-84
2023/04/03 05:25:35;;;;;;;4.18;2.47;;;;;;;;;;8343658;28;20482;-81
2023/04/03 05:29:38;;;;;;;10.73;7.60;;;;;;;;;;8356335;28;20492;-79
2023/04/03 05:33:40;;;;;;;5.82;3.17;;;;;;;;;;8357418;28;20124;-80
2023/04/03 05:37:45;;;;;;;5.88;3.13;;;;;;;;;;8353291;28;20046;-86
2023/04/03 05:41:48;;;;;;;5.18;2.28;;;;;;;;;;8343435;28;20481;-87
2023/04/03 05:45:51;;;;;;;6.13;2.78;;;;;;;;;;8352720;28;20048;-87
2023/04/03 05:49:54;;;;;;;1.65;1.55;;;;;;;;;;8338555;28;20042;-84
2023/04/03 05:54:09;;;;;;;2.38;1.88;;;;;;;;;;8347709;28;20041;-82
2023/04/03 05:58:12;;;;;;;5.78;3.25;;;;;;;;;;8330714;28;20056;-84
2023/04/03 06:02:17;;;;;;;3.72;2.05;;;;;;;;;;8338972;28;20494;-85
2023/04/03 06:06:21;;;;;;;7.50;2.60;;;;;;;;;;8357143;28;20049;-81
2023/04/03 06:10:26;;;;;;;2.38;2.00;;;;;;;;;;8340125;28;20079;-80
2023/04/03 06:14:28;;;;;;;4.38;1.90;;;;;;;;;;8354126;28;20465;-80
2023/04/03 06:18:31;;;;;;;6.10;2.38;;;;;;;;;;8350401;28;20049;-85
2023/04/03 06:22:34;;;;;;;4.60;2.28;;;;;;;;;;8354833;28;20405;-86
2023/04/03 06:26:39;;;;;;;4.78;2.72;;;;;;;;;;8328243;28;20046;-83
2023/04/03 06:30:42;;;;;;;6.50;2.72;;;;;;;;;;8340386;28;20053;-85
2023/04/03 06:34:45;;;;;;;4.05;2.33;;;;;;;;;;8366157;28;20048;-84
2023/04/03 06:38:49;;;;;;;4.25;1.88;;;;;;;;;;8348136;28;20055;-83
2023/04/03 06:42:53;;;;;;;3.80;2.22;;;;;;;;;;8327090;28;20132;-85
2023/04/03 06:46:56;;;;;;;5.43;2.58;;;;;;;;;;8344417;28;20075;-82
2023/04/03 06:50:59;;;;;;;5.00;2.08;;;;;;;;;;8324963;28;20099;-90
2023/04/03 06:55:03;;;;;;;2.53;1.35;;;;;;;;;;8332531;28;20045;-82
2023/04/03 06:59:08;;;;;;;5.97;2.30;;;;;;;;;;8335556;28;20040;-82
2023/04/03 07:03:10;;;;;;;3.60;2.03;;;;;;;;;;8345541;28;20041;-87
2023/04/03 07:07:13;;;;;;;2.95;2.10;;;;;;;;;;8344467;28;20458;-87
2023/04/03 07:11:17;;;;;;;4.60;2.25;;;;;;;;;;8325794;28;20099;-82
2023/04/03 07:15:21;;;;;;;5.75;2.30;;;;;;;;;;8334892;28;20048;-81
2023/04/03 07:19:27;;;;;;;3.70;1.50;;;;;;;;;;8345053;28;20041;-85
2023/04/03 07:23:30;;;;;;;3.63;2.40;;;;;;;;;;8333307;28;20144;-80
2023/04/03 07:27:34;;;;;;;2.20;1.55;;;;;;;;;;8348571;28;20087;-81
2023/04/03 07:31:41;;;;;;;6.75;2.05;;;;;;;;;;8342386;28;20403;-84
2023/04/03 07:35:45;;;;;;;7.63;3.40;;;;;;;;;;8357482;28;20064;-80
2023/04/03 07:39:48;;;;;;;4.13;2.20;;;;;;;;;;8344842;28;20045;-89
2023/04/03 07:43:52;;;;;;;2.70;1.90;;;;;;;;;;8355633;28;20045;-79
2023/04/03 07:47:57;;;;;;;2.55;1.70;;;;;;;;;;8337103;28;20053;-78
2023/04/03 07:52:00;;;;;;;9.18;3.42;;;;;;;;;;8360319;28;20048;-82
2023/04/03 07:56:03;;;;;;;5.35;2.85;;;;;;;;;;8361843;28;20433;-81
2023/04/03 08:00:08;;;;;;;7.60;3.05;;;;;;;;;;8363080;28;20047;-85
2023/04/03 08:04:13;;;;;;;1.60;1.50;;;;;;;;;;8360567;28;20555;-85
2023/04/03 08:08:18;;;;;;;2.97;1.55;;;;;;;;;;8362988;28;20499;-82
2023/04/03 08:12:21;;;;;;;1.40;1.20;;;;;;;;;;8362880;28;20069;-82
2023/04/03 08:16:26;;;;;;;7.80;3.05;;;;;;;;;;8331739;28;20053;-80
2023/04/03 08:20:31;;;;;;;7.00;2.80;;;;;;;;;;8358912;28;20045;-85
2023/04/03 08:24:34;;;;;;;6.03;3.05;;;;;;;;;;8360291;28;20049;-77
2023/04/03 08:28:37;;;;;;;6.10;3.25;;;;;;;;;;8348778;28;20615;-80
2023/04/03 08:32:41;;;;;;;7.22;2.63;;;;;;;;;;8363717;28;20382;-78
2023/04/03 08:36:46;;;;;;;7.15;3.38;;;;;;;;;;8349700;28;20370;-88
2023/04/03 08:40:48;;;;;;;4.50;2.08;;;;;;;;;;8346045;28;20060;-77
2023/04/03 08:45:00;;;;;;;5.47;2.42;;;;;;;;;;8351202;28;20130;-79
2023/04/03 08:49:03;;;;;;;6.15;2.42;;;;;;;;;;8361588;28;20057;-77
2023/04/03 08:53:14;;;;;;;5.18;3.00;;;;;;;;;;8352123;28;20065;-86
2023/04/03 08:57:21;;;;;;;4.68;2.25;;;;;;;;;;8351266;28;20127;-83
2023/04/03 09:01:28;;;;;;;3.83;1.88;;;;;;;;;;8361160;28;20051;-85
2023/04/03 09:05:42;;;;;;;6.03;2.90;;;;;;;;;;8342846;28;20110;-84
2023/04/03 09:09:49;;;;;;;2.97;1.77;;;;;;;;;;8337298;28;20140;-87
2023/04/03 09:13:58;;;;;;;3.78;2.03;;;;;;;;;;8361100;28;20139;-88
2023/04/03 09:18:05;;;;;;;2.75;2.00;;;;;;;;;;8350840;28;20405;-87
2023/04/03 09:22:17;;;;;;;5.38;2.13;;;;;;;;;;8361990;28;20138;-86
2023/04/03 09:26:27;;;;;;;4.13;2.30;;;;;;;;;;8346039;28;20558;-82
2023/04/03 09:30:30;;;;;;;6.65;2.50;;;;;;;;;;8341537;28;20179;-78
2023/04/03 09:34:36;;;;;;;3.78;1.80;;;;;;;;;;8321562;28;20077;-78
2023/04/03 09:38:39;;;;;;;9.35;2.90;;;;;;;;;;8339841;28;20099;-77
2023/04/03 09:42:44;;;;;;;4.55;2.47;;;;;;;;;;8353728;28;20396;-78
2023/04/03 09:46:47;;;;;;;6.50;2.50;;;;;;;;;;8361365;28;20469;-78
2023/04/03 09:51:01;;;;;;;3.95;2.15;;;;;;;;;;8354351;28;20079;-77
2023/04/03 09:55:09;;;;;;;8.10;2.42;;;;;;;;;;8347146;28;20092;-77
2023/04/03 09:59:17;;;;;;;5.45;2.15;;;;;;;;;;8354931;28;20542;-78
2023/04/03 10:03:27;;;;;;;6.63;3.20;;;;;;;;;;8352368;28;20091;-79
2023/04/03 10:07:36;;;;;;;6.55;2.67;;;;;;;;;;8366948;28;20045;-81
2023/04/03 10:11:39;;;;;;;3.70;2.00;;;;;;;;;;8360321;28;20131;-80
2023/04/03 10:15:46;;;;;;;4.68;2.45;;;;;;;;;;8366706;28;20060;-82
2023/04/03 10:19:53;;;;;;;6.15;2.50;;;;;;;;;;8363042;28;20098;-77
2023/04/03 10:24:01;;;;;;;5.53;2.58;;;;;;;;;;8366187;28;20485;-78
2023/04/03 10:28:07;;;;;;;5.32;2.65;;;;;;;;;;8359681;28;21845;-78
2023/04/03 10:32:30;;;;;;;3.10;2.10;;;;;;;;;;8322935;28;20380;-84
2023/04/03 10:36:44;;;;;;;6.22;2.17;;;;;;;;;;8315482;28;20383;-78
2023/04/03 10:40:53;;;;;;;1.92;1.45;;;;;;;;;;8320310;28;20478;-81
2023/04/03 10:45:09;;;;;;;4.57;1.95;;;;;;;;;;8325514;28;20049;-83
2023/04/03 10:49:29;;;;;;;3.50;2.17;;;;;;;;;;8321794;28;20049;-84
2023/04/03 10:53:40;;;;;;;4.97;2.00;;;;;;;;;;8326960;28;20047;-82
2023/04/03 10:57:43;;;;;;;3.42;1.65;;;;;;;;;;8318050;28;20041;-84
2023/04/03 11:01:50;;;;;;;6.70;2.30;;;;;;;;;;8315251;28;20532;-84
2023/04/03 11:05:57;;;;;;;13.38;4.20;;;;;;;;;;8326572;28;20485;-83
2023/04/03 11:10:04;;;;;;;4.82;2.72;;;;;;;;;;8311452;28;20149;-82
2023/04/03 11:14:16;;;;;;;2.58;1.88;;;;;;;;;;8303947;28;20676;-83
2023/04/03 11:18:23;;;;;;;4.00;1.70;;;;;;;;;;8318331;28;20061;-81
2023/04/03 11:22:32;;;;;;;4.10;2.05;;;;;;;;;;8316671;28;20049;-82
2023/04/03 11:26:42;;;;;;;3.15;2.22;;;;;;;;;;8327566;28;20052;-82
2023/04/03 11:30:48;;;;;;;3.53;1.85;;;;;;;;;;8312126;28;20077;-81
2023/04/03 11:34:56;;;;;;;6.35;2.45;;;;;;;;;;8325845;28;20106;-85
2023/04/03 11:39:08;;;;;;;8.52;2.90;;;;;;;;;;8325763;28;20049;-82
2023/04/03 11:43:23;;;;;;;4.82;2.28;;;;;;;;;;8325752;28;20111;-80
2023/04/03 11:47:47;;;;;;;7.38;3.53;;;;;;;;;;8331699;28;20076;-83
2023/04/03 11:51:51;;;;;;;5.03;1.95;;;;;;;;;;8306392;28;20050;-81
2023/04/03 11:56:01;;;;;;;6.75;2.80;;;;;;;;;;8323277;28;20400;-84
2023/04/03 12:00:38;;;;;;;8.18;2.92;;;;;;;;;;8322204;28;20048;-83
2023/04/03 12:05:18;;;;;;;7.65;3.08;;;;;;;;;;8324331;28;20045;-81
2023/04/03 12:09:31;;;;;;;4.68;2.40;;;;;;;;;;8311491;28;20060;-83
2023/04/03 12:13:36;;;;;;;6.28;2.97;;;;;;;;;;8307226;28;20095;-83
2023/04/03 12:17:39;;;;;;;13.23;5.13;;;;;;;;;;8312644;28;20596;-80
2023/04/03 12:22:09;;;;;;;3.78;2.00;;;;;;;;;;8315518;28;20374;-80
2023/04/03 12:26:25;;;;;;;6.28;2.97;;;;;;;;;;8316624;28;20124;-83
2023/04/03 12:30:31;;;;;;;3.45;2.28;;;;;;;;;;8303294;28;20049;-80
2023/04/03 12:34:50;;;;;;;5.90;2.50;;;;;;;;;;8322301;28;20040;-81
2023/04/03 12:39:31;;;;;;;2.60;1.80;;;;;;;;;;8318150;28;20132;-83
2023/04/03 12:43:48;;;;;;;2.40;2.13;;;;;;;;;;8262263;28;20061;-80
2023/04/03 12:47:55;;;;;;;5.50;2.50;;;;;;;;;;8317910;28;20600;-80
2023/04/03 12:51:58;;;;;;;4.97;2.33;;;;;;;;;;8323850;28;20049;-80
2023/04/03 12:56:26;;;;;;;4.85;2.40;;;;;;;;;;8314119;28;20049;-80
2023/04/03 13:00:38;;;;;;;5.00;2.00;;;;;;;;;;8314236;28;20473;-82
2023/04/03 13:04:43;;;;;;;2.90;2.10;;;;;;;;;;8305320;28;20053;-80
2023/04/03 13:08:51;;;;;;;3.17;2.13;;;;;;;;;;8333648;28;20053;-83
2023/04/03 13:12:56;;;;;;;9.52;2.60;;;;;;;;;;8322250;28;20049;-79
2023/04/03 13:17:01;;;;;;;3.08;2.05;;;;;;;;;;8308996;28;20136;-79
2023/04/03 13:21:08;;;;;;;4.38;2.22;;;;;;;;;;8327133;28;20473;-79
2023/04/03 13:25:14;;;;;;;3.72;1.63;;;;;;;;;;8325401;28;20049;-81
2023/04/03 13:29:24;;;;;;;8.15;2.35;;;;;;;;;;8318533;28;20056;-81
2023/04/03 13:33:31;;;;;;;6.03;2.83;;;;;;;;;;8321162;28;20075;-82
2023/04/03 13:37:36;;;;;;;2.95;1.98;;;;;;;;;;8320856;28;20072;-79
2023/04/03 13:41:41;;;;;;;3.05;2.08;;;;;;;;;;8317546;28;20488;-78
2023/04/03 13:45:59;;;;;;;7.18;2.38;;;;;;;;;;8307509;28;20457;-78
2023/04/03 13:50:05;;;;;;;3.28;1.90;;;;;;;;;;8329174;28;20088;-79
2023/04/03 13:54:21;;;;;;;5.10;2.75;;;;;;;;;;8316396;28;20060;-83
2023/04/03 13:58:26;;;;;;;4.05;2.10;;;;;;;;;;8325230;28;20083;-82
2023/04/03 14:02:33;;;;;;;1.83;1.42;;;;;;;;;;8319239;28;20042;-81
2023/04/03 14:06:36;;;;;;;6.45;2.38;;;;;;;;;;8317274;28;20430;-79
2023/04/03 14:10:41;;;;;;;6.50;2.92;;;;;;;;;;8313264;28;20050;-77
2023/04/03 14:14:45;;;;;;;3.72;2.03;;;;;;;;;;8323190;28;20502;-77
2023/04/03 14:18:52;;;;;;;5.75;2.15;;;;;;;;;;8303316;28;20215;-80
2023/04/03 14:22:55;;;;;;;5.95;2.30;;;;;;;;;;8313410;28;20054;-79
2023/04/03 14:27:00;;;;;;;7.38;3.63;;;;;;;;;;8310495;28;20418;-86
2023/04/03 14:31:03;;;;;;;5.88;2.40;;;;;;;;;;8302461;28;20054;-83
2023/04/03 14:35:06;;;;;;;3.47;2.00;;;;;;;;;;8307478;28;20042;-81
2023/04/03 14:39:12;;;;;;;4.97;3.20;;;;;;;;;;8311903;28;20054;-81
2023/04/03 14:43:17;;;;;;;2.05;1.70;;;;;;;;;;8309598;28;20517;-81
2023/04/03 14:47:23;;;;;;;5.22;2.33;;;;;;;;;;8322524;28;20053;-84
2023/04/03 14:51:26;;;;;;;3.00;1.90;;;;;;;;;;8317702;28;20050;-83
2023/04/03 14:55:29;;;;;;;1.63;1.50;;;;;;;;;;8312833;28;20065;-81
2023/04/03 14:59:33;;;;;;;8.75;2.80;;;;;;;;;;8312824;28;20046;-82
2023/04/03 15:03:36;;;;;;;6.20;2.95;;;;;;;;;;8320983;28;20050;-78
2023/04/03 15:07:42;;;;;;;4.78;1.85;;;;;;;;;;8313479;28;20409;-79
2023/04/03 15:11:45;;;;;;;7.15;2.72;;;;;;;;;;8317752;28;20049;-81
2023/04/03 15:15:51;;;;;;;5.00;2.53;;;;;;;;;;8318950;28;20058;-84
2023/04/03 15:19:54;;;;;;;9.18;3.92;;;;;;;;;;8317062;28;20060;-79
2023/04/03 15:23:57;;;;;;;3.22;1.90;;;;;;;;;;8307550;28;20416;-79
2023/04/03 15:28:01;;;;;;;5.03;2.53;;;;;;;;;;8316229;28;20440;-78
2023/04/03 15:32:06;;;;;;;2.13;1.75;;;;;;;;;;8314680;28;20049;-83
2023/04/03 15:36:10;;;;;;;4.63;2.60;;;;;;;;;;8320220;28;20107;-81
2023/04/03 15:40:13;;;;;;;5.20;2.40;;;;;;;;;;8321958;28;20638;-80
2023/04/03 15:44:17;;;;;;;7.57;3.40;;;;;;;;;;8303211;28;20049;-79
2023/04/03 15:48:23;;;;;;;7.47;3.35;;;;;;;;;;8315074;28;20045;-83
2023/04/03 15:52:26;;;;;;;5.90;2.60;;;;;;;;;;8339522;28;20754;-81
2023/04/03 15:56:29;;;;;;;46.55;14.52;;;;;;;;;;8321023;28;20041;-80
2023/04/03 16:00:33;;;;;;;65.15;18.92;;;;;;;;;;8301422;28;20049;-80
2023/04/03 16:04:38;;;;;;;9.30;4.47;;;;;;;;;;8319980;28;20098;-86
2023/04/03 16:08:41;;;;;;;22.50;7.80;;;;;;;;;;8321939;28;20393;-78
2023/04/03 16:12:47;;;;;;;13.85;5.45;;;;;;;;;;8311827;28;20052;-79
2023/04/03 16:16:51;;;;;;;10.48;5.03;;;;;;;;;;8296870;28;20439;-78
2023/04/03 16:20:56;;;;;;;7.15;3.53;;;;;;;;;;8318458;28;20046;-81
2023/04/03 16:24:59;;;;;;;13.68;6.20;;;;;;;;;;8318460;28;20041;-81
2023/04/03 16:29:03;;;;;;;7.40;2.72;;;;;;;;;;8309249;28;20057;-79
2023/04/03 16:33:06;;;;;;;7.50;3.30;;;;;;;;;;8313912;28;20045;-79
2023/04/03 16:37:10;;;;;;;3.50;2.10;;;;;;;;;;8317726;28;20077;-78
2023/04/03 16:41:14;;;;;;;16.27;5.68;;;;;;;;;;8314334;28;20049;-78
2023/04/03 16:45:17;;;;;;;14.60;6.10;;;;;;;;;;8301756;28;20056;-81
2023/04/03 16:49:21;;;;;;;15.43;6.00;;;;;;;;;;8304383;28;20046;-77
2023/04/03 16:53:26;;;;;;;17.02;6.43;;;;;;;;;;8309609;28;20095;-78
2023/04/03 16:57:30;;;;;;;24.38;10.10;;;;;;;;;;8302366;28;20511;-80
2023/04/03 17:01:33;;;;;;;10.30;5.88;;;;;;;;;;8313584;28;20569;-85
2023/04/03 17:05:36;;;;;;;17.67;6.82;;;;;;;;;;8316692;28;20041;-85
2023/04/03 17:09:41;;;;;;;13.13;5.10;;;;;;;;;;8315856;28;20138;-80
2023/04/03 17:13:44;;;;;;;12.75;5.55;;;;;;;;;;8319778;28;20050;-86
2023/04/03 17:17:49;;;;;;;52.58;19.05;;;;;;;;;;8327414;28;20183;-79
2023/04/03 17:21:53;;;;;;;40.25;15.23;;;;;;;;;;8326407;28;20047;-82
2023/04/03 17:25:58;;;;;;;16.98;6.78;;;;;;;;;;8317053;28;20128;-83
2023/04/03 17:30:01;;;;;;;13.80;5.78;;;;;;;;;;8317792;28;20109;-78
2023/04/03 17:34:10;;;;;;;15.52;6.55;;;;;;;;;;8311473;28;20069;-78
2023/04/03 17:38:17;;;;;;;13.13;5.53;;;;;;;;;;8317474;28;20196;-83
2023/04/03 17:42:23;;;;;;;12.90;5.22;;;;;;;;;;8307981;28;20049;-80
2023/04/03 17:46:28;;;;;;;14.75;6.05;;;;;;;;;;8300217;28;20474;-80
2023/04/03 17:50:33;;;;;;;19.10;8.43;;;;;;;;;;8333965;28;20052;-80
2023/04/03 17:54:38;;;;;;;35.70;14.65;;;;;;;;;;8335392;28;20052;-84
2023/04/03 17:58:47;;;;;;;10.60;5.68;;;;;;;;;;8341474;28;20087;-84
2023/04/03 18:02:54;;;;;;;9.43;4.55;;;;;;;;;;8364827;28;20206;-78
2023/04/03 18:06:58;;;;;;;52.08;19.27;;;;;;;;;;8361508;28;20509;-80
2023/04/03 18:11:02;;;;;;;6.65;3.15;;;;;;;;;;8324051;28;20056;-80
2023/04/03 18:15:13;;;;;;;8.80;4.32;;;;;;;;;;8355212;28;20054;-84
2023/04/03 18:19:19;;;;;;;10.98;4.53;;;;;;;;;;8365622;28;20493;-85
2023/04/03 18:23:28;;;;;;;10.18;3.83;;;;;;;;;;8365492;28;20044;-80
2023/04/03 18:27:33;;;;;;;7.78;3.88;;;;;;;;;;8349531;28;20041;-84
2023/04/03 18:31:42;;;;;;;12.30;4.43;;;;;;;;;;8365580;28;20497;-79
2023/04/03 18:35:46;;;;;;;10.55;5.18;;;;;;;;;;8364726;28;20048;-81
2023/04/03 18:39:52;;;;;;;8.60;4.35;;;;;;;;;;8365837;28;20049;-79
2023/04/03 18:44:00;;;;;;;11.35;4.72;;;;;;;;;;8360928;28;20049;-80
2023/04/03 18:48:06;;;;;;;15.98;5.90;;;;;;;;;;8347234;28;20110;-84
2023/04/03 18:52:11;;;;;;;11.95;5.72;;;;;;;;;;8344534;28;20041;-81
2023/04/03 18:56:16;;;;;;;14.90;6.50;;;;;;;;;;8340190;28;20128;-81
2023/04/03 19:00:21;;;;;;;14.73;6.70;;;;;;;;;;8321007;28;20041;-83
2023/04/03 19:04:28;;;;;;;51.55;18.02;;;;;;;;;;8319975;28;20049;-80
2023/04/03 19:08:34;;;;;;;9.95;4.28;;;;;;;;;;8332932;28;20049;-79
2023/04/03 19:12:39;;;;;;;24.15;8.88;;;;;;;;;;8321699;28;20041;-80
2023/04/03 19:16:45;;;;;;;14.60;6.65;;;;;;;;;;8309600;28;20077;-80
2023/04/03 19:20:52;;;;;;;24.80;9.70;;;;;;;;;;8311915;28;20100;-82
2023/04/03 19:24:57;;;;;;;22.67;8.85;;;;;;;;;;8303979;28;20046;-80
2023/04/03 19:29:05;;;;;;;22.10;7.55;;;;;;;;;;8306651;28;20506;-81
2023/04/03 19:33:14;;;;;;;28.10;11.75;;;;;;;;;;8313764;28;20055;-81
2023/04/03 19:37:23;;;;;;;9.43;5.07;;;;;;;;;;8328471;28;20053;-80
2023/04/03 19:41:31;;;;;;;13.90;6.47;;;;;;;;;;8326962;28;20059;-83
2023/04/03 19:45:36;;;;;;;10.32;4.95;;;;;;;;;;8329296;28;20048;-80
2023/04/03 19:49:44;;;;;;;10.05;5.13;;;;;;;;;;8328524;28;20060;-81
2023/04/03 19:53:51;;;;;;;11.15;4.93;;;;;;;;;;8330209;28;20366;-78
2023/04/03 19:57:55;;;;;;;14.70;4.85;;;;;;;;;;8317708;28;20049;-82
2023/04/03 20:02:00;;;;;;;15.85;6.07;;;;;;;;;;8328429;28;20065;-79
2023/04/03 20:06:07;;;;;;;12.98;5.65;;;;;;;;;;8327522;28;20041;-80
2023/04/03 20:10:13;;;;;;;12.10;6.00;;;;;;;;;;8334139;28;20573;-78
2023/04/03 20:14:18;;;;;;;19.73;8.90;;;;;;;;;;8337546;28;20049;-78
2023/04/03 20:18:22;;;;;;;25.00;11.55;;;;;;;;;;8344717;28;20140;-79
2023/04/03 20:22:28;;;;;;;24.45;11.40;;;;;;;;;;8344922;28;20049;-78
2023/04/03 20:26:37;;;;;;;24.35;9.73;;;;;;;;;;8343937;28;20056;-80
2023/04/03 20:30:41;;;;;;;58.28;18.90;;;;;;;;;;8348937;28;20121;-78
2023/04/03 20:34:45;;;;;;;128.40;37.40;;;;;;;;;;8331776;28;20045;-78
2023/04/03 20:38:49;;;;;;;46.25;17.73;;;;;;;;;;8350830;28;20611;-77
2023/04/03 20:42:53;;;;;;;49.28;19.63;;;;;;;;;;8358762;28;20155;-79
2023/04/03 20:46:57;;;;;;;41.13;15.77;;;;;;;;;;8361541;28;20047;-79
2023/04/03 20:51:09;;;;;;;43.38;16.88;;;;;;;;;;8362064;28;20048;-82
2023/04/03 20:55:12;;;;;;;46.65;18.52;;;;;;;;;;8339123;28;20076;-77
2023/04/03 20:59:16;;;;;;;58.72;21.67;;;;;;;;;;8361979;28;20037;-79
2023/04/03 21:03:19;;;;;;;57.70;21.73;;;;;;;;;;8361692;28;20060;-79
2023/04/03 21:07:59;;;;;;;63.30;23.98;;;;;;;;;;8330377;28;20580;-82
2023/04/03 21:12:39;;;;;;;87.80;25.33;;;;;;;;;;8345247;28;20436;-78
2023/04/03 21:16:42;;;;;;;117.28;32.55;;;;;;;;;;8324421;28;20053;-78
2023/04/03 21:20:46;;;;;;;67.90;21.95;;;;;;;;;;8347187;28;20056;-78
2023/04/03 21:24:49;;;;;;;72.05;26.08;;;;;;;;;;8341992;28;20041;-78
2023/04/03 21:28:52;;;;;;;72.28;24.50;;;;;;;;;;8352978;28;20538;-81
2023/04/03 21:32:55;;;;;;;73.03;26.52;;;;;;;;;;8344093;28;20052;-75
2023/04/03 21:37:03;;;;;;;87.03;28.80;;;;;;;;;;8358441;28;20600;-77
2023/04/03 21:41:06;;;;;;;69.45;25.83;;;;;;;;;;8361463;28;20051;-77
2023/04/03 21:45:15;;;;;;;72.07;25.20;;;;;;;;;;8361279;28;20045;-76
2023/04/03 21:49:18;;;;;;;54.90;19.55;;;;;;;;;;8352712;28;20541;-78
2023/04/03 21:53:23;;;;;;;65.93;22.85;;;;;;;;;;8362320;28;20109;-78
2023/04/03 21:57:25;;;;;;;77.50;26.48;;;;;;;;;;8367171;28;20053;-77
2023/04/03 22:01:29;;;;;;;61.40;22.48;;;;;;;;;;8340581;28;20041;-76
2023/04/03 22:05:32;;;;;;;48.70;19.20;;;;;;;;;;8367572;28;20131;-77
2023/04/03 22:09:36;;;;;;;29.15;12.60;;;;;;;;;;8366304;28;20049;-79
2023/04/03 22:13:39;;;;;;;35.92;14.82;;;;;;;;;;8354267;28;20110;-83
2023/04/03 22:17:43;;;;;;;40.05;15.90;;;;;;;;;;8349024;28;20045;-79
2023/04/03 22:21:46;;;;;;;44.58;15.48;;;;;;;;;;8351615;28;20051;-78
2023/04/03 22:26:00;;;;;;;38.72;15.02;;;;;;;;;;8335637;28;20045;-75
2023/04/03 22:30:03;;;;;;;25.98;11.25;;;;;;;;;;8348638;28;20053;-78
2023/04/03 22:34:06;;;;;;;23.08;10.70;;;;;;;;;;8345549;28;20068;-78
2023/04/03 22:38:09;;;;;;;23.60;9.65;;;;;;;;;;8353066;28;20049;-78
2023/04/03 22:42:13;;;;;;;23.75;9.73;;;;;;;;;;8343182;28;20133;-81
2023/04/03 22:46:16;;;;;;;24.63;8.65;;;;;;;;;;8359795;28;20057;-78
2023/04/03 22:50:19;;;;;;;25.00;9.10;;;;;;;;;;8346470;28;20050;-78
2023/04/03 22:54:22;;;;;;;26.17;9.63;;;;;;;;;;8347571;28;20053;-79
2023/04/03 22:58:27;;;;;;;30.23;11.57;;;;;;;;;;8355389;28;20488;-79
2023/04/03 23:02:32;;;;;;;24.42;11.48;;;;;;;;;;8341599;28;20049;-79
2023/04/03 23:06:35;;;;;;;27.05;10.80;;;;;;;;;;8343451;28;20128;-80
2023/04/03 23:10:41;;;;;;;23.67;10.88;;;;;;;;;;8344127;28;20041;-79
2023/04/03 23:14:45;;;;;;;17.83;8.38;;;;;;;;;;8341236;28;20481;-77
2023/04/03 23:18:48;;;;;;;15.68;7.70;;;;;;;;;;8350445;28;20067;-81
2023/04/03 23:22:51;;;;;;;19.42;8.50;;;;;;;;;;8357123;28;20076;-81
2023/04/03 23:26:55;;;;;;;22.55;5.95;;;;;;;;;;8354041;28;20546;-78
2023/04/03 23:31:00;;;;;;;15.35;7.28;;;;;;;;;;8335626;28;20045;-79
2023/04/03 23:35:03;;;;;;;7.60;4.00;;;;;;;;;;8345659;28;20064;-80
2023/04/03 23:39:06;;;;;;;6.90;3.95;;;;;;;;;;8356050;28;20037;-78
2023/04/03 23:43:08;;;;;;;8.80;4.68;;;;;;;;;;8342937;28;20513;-80
2023/04/03 23:47:12;;;;;;;8.25;4.22;;;;;;;;;;8341126;28;20041;-79
2023/04/03 23:51:15;;;;;;;9.25;4.10;;;;;;;;;;8359437;28;20484;-78
2023/04/03 23:55:18;;;;;;;16.20;4.82;;;;;;;;;;8345693;28;20053;-79
2023/04/03 23:59:21;;;;;;;7.55;4.00;;;;;;;;;;8345170;28;20072;-76
